Weather observations for the past three days for
LaGrange-Callaway Airport
Metric (Imperial)
Date Time (edt) Wind (kph) Vis. (km) Weather Sky Cond. Temperature (ºC) Relative Humidity Wind Chill (°C) Heat Index (°C) Pressure Precipitation (cm)
Air Dwpt 6 hour altimeter (cm) sea level (mb) 1 hr 3 hr 6 hr
Max. Min.
02 12:55 Calm 16.09 Partly Cloudy SCT090 17 9 60% 76.05 0.0
02 12:35 Calm 16.09 Overcast OVC090 16 8 59% 76.05 0.0
02 12:15 NW 6 16.09 Overcast OVC090 16 8 59% 76.07 0.0
02 11:55 NW 13 16.09 Overcast OVC090 16 9 63% 76.07 0.0
02 11:35 N 13 16.09 Overcast OVC090 15 9 68% 76.07 0.0
02 11:15 N 11 16.09 Overcast OVC090 13 8 72% 76.07 0.0
02 10:55 N 7 16.09 Overcast BKN090 OVC120 14 9 72% 76.05 0.0
02 10:35 N 7 16.09 Mostly Cloudy BKN090 BKN120 13 9 77% 76.05 0.0
02 10:15 N 6 16.09 Overcast OVC090 12 8 77% 76.05 0.0
02 09:55 N 6 16.09 Overcast OVC090 12 9 82% 76.05 0.0
02 09:35 N 6 16.09 Light Rain SCT039 OVC090 12 10 88% 76 0.0
02 09:15 N 7 16.09 Light Drizzle OVC080 12 10 88% 76 0.0
02 08:55 NW 7 16.09 Light Rain BKN090 OVC110 12 10 88% 76 0.0
02 08:35 N 6 16.09 Light Rain SCT060 BKN090 OVC110 12 10 88% 75.95 0.0
02 08:15 N 6 16.09 Light Rain OVC090 12 10 88% 76 0.0
02 07:55 NW 9 16.09 Light Rain SCT070 OVC100 12 10 88% 76.05 0.0
02 07:35 Calm 16.09 Light Rain SCT070 BKN090 OVC120 12 11 94% 75.92 0.0
02 07:15 NW 9 16.09 Light Rain SCT050 SCT070 BKN085 12 11 94% 76 0.0
02 06:55 N 9 16.09 Light Rain SCT070 SCT095 BKN110 12 11 94% 75.9 0.0 0.05
02 06:35 N 6 16.09 Light Rain BKN095 OVC110 13 12 94% 75.95 0.0 0.03
02 06:15 NW 7 11.27 Light Rain OVC085 13 12 94% 76 0.0
02 05:55 SW 9 16.09 Overcast SCT004 OVC085 13 12 94% 76 0.0
02 05:35 SW 6 16.09 Overcast OVC004 13 12 94% 75.95 0.0
02 05:15 Calm 16.09 Light Rain OVC004 13 12 94% 75.92 0.0
02 04:55 Calm 16.09 Light Rain BKN004 BKN019 OVC075 13 12 94% 75.95 0.0 0.05
02 04:35 W 6 16.09 Light Rain SCT004 BKN065 OVC080 13 12 94% 75.95 0.0 0.05
02 04:15 W 6 16.09 Light Rain SCT006 BKN065 OVC080 13 12 94% 75.97 0.0
02 03:55 Calm 11.27 Light Rain BKN006 BKN017 OVC075 13 12 94% 75.97 0.0 0.15
02 03:15 Calm 11.27 Light Rain SCT006 BKN065 OVC110 13 12 94% 75.97 0.0 0.05
02 02:55 Calm 16.09 Light Rain SCT006 BKN065 OVC110 13 12 94% 76 0.0 0.15
02 02:35 Calm 11.27 Light Rain SCT004 BKN070 OVC090 13 12 94% 76 0.0 0.1
02 02:15 Calm 8.05 Light Rain SCT004 BKN070 OVC090 13 12 94% 76 0.0 0.05
02 01:55 Calm 8.05 Light Rain SCT004 BKN070 OVC090 13 13 100% 76.05 0.0 0.23
02 01:35 Calm 4.83 Light Rain SCT024 BKN080 OVC100 13 13 100% 76.05 0.0 0.13
02 01:15 Calm 16.09 Light Rain OVC080 13 13 100% 76.07 0.0 0.03
02 00:55 Calm 16.09 Light Rain BKN090 OVC110 13 13 100% 76.05 0.0 0.05
02 00:35 S 6 16.09 Light Rain BKN090 OVC110 13 13 100% 76.05 0.0 0.03
02 00:15 Calm 11.27 Light Rain BKN090 OVC120 13 13 100% 76.05 0.0
01 23:55 Calm 11.27 Light Rain OVC110 13 13 100% 76.05 0.0 0.05
01 23:35 Calm 11.27 Light Rain SCT090 OVC120 13 13 100% 76.05 0.0 0.03
01 23:15 Calm 16.09 Light Rain SCT100 OVC110 14 13 94% 76.07 0.0 0.03
01 22:55 Calm 16.09 Light Rain OVC100 14 13 94% 76.1 0.0 0.03
01 22:35 Calm 16.09 Light Rain OVC110 14 13 94% 76.1 0.0
01 22:15 Calm 16.09 Light Rain BKN120 14 13 94% 76.1 0.0
01 21:55 Calm 16.09 Light Rain BKN120 14 13 94% 76.1 0.0 0.03
01 21:35 Calm 16.09 Light Rain SCT095 OVC120 14 12 88% 76.07 0.0
01 21:15 Calm 16.09 Light Rain BKN095 OVC120 14 12 88% 76.07 0.0
01 20:55 Calm 16.09 Light Rain OVC110 15 12 82% 76.05 0.0
01 20:35 Calm 16.09 Light Rain OVC110 15 12 82% 76 0.0
01 20:15 Calm 16.09 Overcast OVC100 16 11 72% 75.97 0.0
01 19:55 Calm 16.09 Light Rain OVC110 16 11 72% 75.95 0.0
01 19:35 Calm 16.09 Overcast SCT090 OVC110 16 10 68% 75.97 0.0
01 19:15 Calm 16.09 Overcast SCT080 OVC090 16 10 68% 75.97 0.0
01 18:55 Calm 16.09 Overcast SCT070 OVC100 17 10 64% 75.97 0.0
01 18:35 Calm 16.09 Overcast BKN100 OVC120 17 11 68% 75.95 0.0
01 18:15 N 6 16.09 Mostly Cloudy BKN110 17 10 64% 75.97 0.0
01 17:55 Calm 16.09 Partly Cloudy SCT090 SCT110 17 11 68% 75.95 0.0
01 17:35 N 6 16.09 Overcast SCT080 OVC090 17 12 73% 75.95 0.0
01 17:15 N 6 16.09 Light Rain BKN090 OVC110 17 11 68% 76 0.0
01 16:55 N 7 16.09 Overcast SCT080 OVC100 17 11 68% 76 0.0
01 16:35 N 7 16.09 Light Rain OVC090 17 10 64% 76 0.0
01 16:15 Calm 16.09 Light Rain SCT075 OVC090 17 11 68% 76.05 0.0
01 15:55 Calm 16.09 Overcast OVC090 17 10 64% 76.05 0.0
01 15:35 Calm 16.09 Overcast OVC090 18 9 56% 76.07 0.0
01 15:15 Calm 16.09 Overcast OVC090 18 7 49% 76.1 0.0
01 14:55 Calm 16.09 Overcast OVC100 18 8 52% 76.07 0.0
01 14:35 NW 7 16.09 Overcast OVC100 18 8 52% 76.1 0.0
01 14:15 W 6 16.09 Overcast OVC100 18 8 52% 76.1 0.0
01 13:55 NW 9 16.09 Overcast OVC100 18 9 56% 76.1 0.0
01 13:35 N 6 16.09 Overcast OVC100 18 10 60% 76.1 0.0
01 13:15 N 9 16.09 Overcast OVC100 18 8 52% 76.1 0.0
01 12:55 NW 6 16.09 Overcast OVC100 18 8 52% 76.1 0.0
01 12:35 Calm 16.09 Overcast OVC110 18 8 52% 76.12 0.0
01 12:15 W 6 16.09 Mostly Cloudy BKN110 18 9 56% 76.12 0.0
01 11:55 Calm 16.09 Mostly Cloudy BKN110 18 9 56% 76.12 0.0
01 11:35 Calm 16.09 Partly Cloudy SCT110 17 9 60% 76.1 0.0
01 11:15 Calm 16.09 Mostly Cloudy BKN110 17 8 56% 76.1 0.0
01 10:55 Calm 16.09 Overcast OVC120 16 8 59% 76.07 0.0
01 10:35 Calm 16.09 Mostly Cloudy BKN120 16 10 68% 76.07 0.0
01 10:15 Calm 16.09 Mostly Cloudy SCT090 BKN120 15 10 72% 76.07 0.0
01 09:55 Calm 16.09 Mostly Cloudy BKN090 BKN120 15 10 72% 76.07 0.0
01 09:35 Calm 16.09 Overcast OVC090 15 10 72% 76.1 0.0
01 09:15 Calm 16.09 Overcast BKN100 OVC120 14 11 82% 76.1 0.0
01 08:55 Calm 16.09 Overcast OVC100 13 11 88% 76.1 0.0
01 08:35 Calm 16.09 Light Rain OVC100 13 11 88% 76.07 0.0
01 08:15 Calm 16.09 Overcast OVC100 13 11 88% 76.07 0.0
01 07:55 SE 6 16.09 Light Rain OVC110 12 11 94% 76.07 0.0
01 07:35 Calm 16.09 Light Rain OVC090 12 11 94% 76.07 0.0
01 07:15 Calm 16.09 Light Rain OVC080 12 11 94% 76.05 0.0
01 06:55 Calm 16.09 Light Rain OVC080 12 11 94% 76 0.0
01 06:35 Calm 16.09 Light Rain OVC080 13 10 82% 76 0.0
01 06:15 Calm 16.09 Light Rain OVC090 13 10 82% 76 0.0
01 05:55 Calm 16.09 Overcast OVC100 13 10 82% 75.97 0.0
01 05:35 Calm 16.09 Light Drizzle OVC100 13 11 88% 75.97 0.0
01 05:15 Calm 16.09 Overcast OVC100 13 11 88% 75.97 0.0
01 04:55 Calm 16.09 Light Rain OVC100 13 10 82% 76.02 0.0
01 04:35 Calm 16.09 Overcast SCT080 OVC110 14 8 67% 76 0.0
01 04:15 Calm 16.09 Mostly Cloudy SCT080 BKN110 14 9 72% 75.97 0.0
01 03:55 Calm 16.09 Partly Cloudy SCT110 13 10 82% 75.97 0.0
01 03:35 Calm 16.09 Mostly Cloudy BKN110 14 10 77% 76 0.0
01 03:15 Calm 16.09 Mostly Cloudy BKN120 14 10 77% 75.97 0.0
01 02:55 Calm 16.09 Fair CLR 13 11 88% 75.97 0.0
01 02:35 W 9 16.09 Fair CLR 13 11 88% 76 0.0
01 02:15 Calm 16.09 Fair CLR 15 11 77% 75.97 0.0
01 01:55 Calm 16.09 Fair CLR 13 12 94% 75.97 0.0
01 01:35 Calm 16.09 Fair CLR 14 12 88% 76 0.0
01 01:15 Calm 16.09 Fair CLR 13 12 94% 76 0.0
01 00:55 Calm 16.09 Fair CLR 14 12 88% 76 0.0
01 00:35 Calm 16.09 Fair CLR 14 12 88% 76.05 0.0
01 00:15 Calm 16.09 Fair CLR 14 11 82% 76 0.0
30 23:55 Calm 16.09 Fair CLR 15 11 77% 76 0.0
30 23:35 Calm 16.09 Fair CLR 16 11 72% 76.05 0.0
30 23:15 Calm 16.09 Fair CLR 15 11 77% 76.05 0.0
30 22:55 Calm 16.09 Fair CLR 15 11 77% 76.05 0.0
30 22:35 Calm 16.09 Fair CLR 16 11 72% 76.05 0.0
30 21:55 Calm 16.09 Fair CLR 17 11 68% 76 0.0
30 21:35 Calm 16.09 Fair CLR 18 11 64% 75.97 0.0
30 20:55 Calm 16.09 Fair CLR 18 12 68% 75.95 0.0
30 20:35 N 7 16.09 Fair CLR 18 11 64% 75.92 0.0
30 20:15 N 11 16.09 Fair CLR 18 12 68% 75.92 0.0
30 19:55 Calm 16.09 Fair CLR 19 12 64% 75.92 0.0
30 19:35 Calm 16.09 Fair CLR 21 10 50% 75.9 0.0
30 19:15 N 6 16.09 Fair CLR 21 10 50% 75.9 0.0
30 18:55 Calm 16.09 Fair CLR 21 11 53% 75.87 0.0
30 18:35 NW 11 16.09 Fair CLR 22 10 47% 75.9 0.0
30 18:15 N 11 16.09 Fair CLR 22 10 47% 75.87 0.0
30 17:55 NW 9 16.09 Fair CLR 22 11 50% 75.87 0.0
30 17:35 N 9 16.09 Fair CLR 21 11 53% 75.87 0.0
30 17:15 N 9 16.09 Fair CLR 22 11 50% 75.87 0.0
30 16:55 N 6 16.09 Fair CLR 21 10 50% 75.87 0.0
30 16:35 N 11 16.09 Fair CLR 21 10 50% 75.9 0.0
30 16:15 N 11 16.09 Fair CLR 22 11 50% 75.92 0.0
30 15:55 N 7 16.09 Fair CLR 22 11 50% 75.92 0.0
30 15:35 N 7 16.09 Fair CLR 22 11 50% 75.95 0.0
30 15:15 NW 11 16.09 Fair CLR 22 11 50% 75.95 0.0
30 14:55 NW 15 16.09 Fair CLR 21 12 57% 75.92 0.0
30 14:35 NW 15 16.09 Fair CLR 22 12 53% 75.92 0.0
30 14:15 NW 7 16.09 Partly Cloudy SCT031 21 12 57% 75.92 0.0
30 13:55 NW 9 16.09 Mostly Cloudy BKN031 21 13 60% 75.95 0.0
30 13:35 N 11 16.09 Mostly Cloudy BKN029 21 13 60% 75.95 0.0
30 13:15 NW 15 16.09 Mostly Cloudy BKN029 21 13 60% 75.95 0.0
30 12:55 N 9 16.09 Overcast OVC027 20 13 64% 75.97 0.0
30 12:35 NW 11 16.09 Overcast OVC025 19 13 68% 76 0.0
30 12:15 N 15 16.09 Mostly Cloudy BKN023 20 13 64% 76 0.0
30 11:55 N 7 16.09 Overcast OVC019 18 13 73% 76 0.0
30 11:35 N 13 16.09 Overcast OVC019 18 13 73% 76 0.0
30 11:15 N 15 G 26 16.09 Mostly Cloudy BKN019 BKN025 18 13 73% 76 0.0
30 10:55 N 17 16.09 Mostly Cloudy BKN021 18 13 73% 75.95 0.0
30 10:35 N 15 16.09 Mostly Cloudy BKN016 BKN025 18 13 73% 75.95 0.0
30 10:15 N 13 16.09 Partly Cloudy SCT016 SCT029 SCT050 18 15 83% 75.95 0.0
30 09:55 N 9 16.09 Partly Cloudy SCT055 18 15 83% 75.92 0.0
30 09:35 N 7 16.09 Fair CLR 18 15 83% 75.92 0.0
30 09:15 NW 13 16.09 Partly Cloudy SCT100 18 16 88% 75.9 0.0
30 08:55 NW 9 16.09 Mostly Cloudy BKN110 18 16 88% 75.87 0.0
30 08:35 Calm 16.09 Partly Cloudy SCT120 17 16 94% 75.82 0.0
30 08:15 Calm 16.09 Partly Cloudy SCT038 SCT050 18 15 83% 75.84 0.0
30 07:55 Calm 16.09 Overcast BKN036 OVC050 17 16 94% 75.87 0.0
30 07:35 Calm 16.09 Overcast SCT034 BKN048 OVC050 17 16 94% 75.9 0.0
30 07:15 Calm 16.09 Overcast BKN048 BKN055 OVC120 17 16 94% 75.92 0.0
30 06:55 Calm 16.09 Mostly Cloudy SCT041 BKN050 BKN120 17 16 94% 75.9 0.0
30 06:35 Calm 16.09 Overcast SCT035 SCT041 OVC050 18 15 83% 75.84 0.0
30 06:15 NW 6 16.09 Overcast SCT033 BKN041 OVC050 18 15 83% 75.87 0.0
30 05:55 N 6 16.09 Overcast SCT033 OVC042 18 15 83% 75.84 0.0
30 05:35 NW 11 16.09 Overcast SCT037 OVC044 18 15 83% 75.82 0.0
30 05:15 N 11 16.09 Overcast SCT035 OVC047 18 15 83% 75.82 0.0
30 04:55 NW 13 16.09 Overcast SCT035 OVC050 18 16 88% 75.84 0.0
30 04:35 NW 17 16.09 Overcast OVC055 19 16 83% 75.82 0.0
30 04:15 NW 13 16.09 Overcast BKN055 OVC070 20 17 83% 75.79 0.0
30 03:55 NW 9 16.09 Partly Cloudy SCT070 19 18 94% 75.77 0.0
30 03:35 NW 9 11.27 Fair CLR 19 18 94% 75.74 0.0
30 03:15 Calm 0.40 Fog VV002 18 18 100% 75.72 0.0
30 02:55 Calm 2.01 Fog/Mist VV007 19 18 94% 75.74 0.0
30 02:35 Calm 8.05 Fog/Mist CLR 19 18 94% 75.77 0.0
30 02:15 Calm 11.27 Fair CLR 20 18 88% 75.77 0.0
30 01:55 W 6 16.09 Fair CLR 20 18 88% 75.79 0.0
30 01:35 W 6 16.09 Fair CLR 20 18 88% 75.82 0.0
30 01:15 W 11 16.09 Partly Cloudy SCT090 21 19 88% 75.87 0.0
30 00:55 W 7 16.09 Mostly Cloudy SCT080 BKN100 21 20 94% 75.87 0.0
30 00:35 W 13 16.09 Light Rain SCT070 SCT085 OVC110 21 20 94% 75.9 0.0
30 00:15 W 11 16.09 Light Rain SCT041 BKN095 OVC110 21 20 94% 75.92 0.0
29 23:55 W 20 8.05 Rain SCT026 BKN050 OVC085 21 18 83% 75.95 0.0 0.91
29 23:35 W 7 16.09 Mostly Cloudy SCT028 SCT035 BKN045 22 20 88% 75.97 0.0
29 23:15 SW 7 16.09 Partly Cloudy SCT045 21 20 94% 75.97 0.0
29 22:55 Calm 16.09 Fair CLR 21 19 88% 75.97 0.0
29 22:35 Calm 16.09 Fair CLR 21 19 88% 75.92 0.0
29 22:15 Calm 16.09 Fair CLR 21 19 88% 75.92 0.0
29 21:55 Calm 16.09 Fair CLR 21 19 88% 75.92 0.0
29 21:35 Calm 16.09 Fair CLR 22 19 83% 75.92 0.0
29 21:15 Calm 16.09 Fair CLR 22 19 83% 75.92 0.0
29 20:55 W 7 16.09 Fair CLR 22 19 83% 75.9 0.0
29 20:35 W 7 16.09 Fair CLR 22 19 83% 75.9 0.0
29 20:15 W 6 16.09 Fair CLR 23 18 74% 75.84 0.0
29 19:55 W 6 16.09 Fair CLR 23 18 74% 75.82 0.0
29 19:35 W 6 16.09 Fair CLR 24 18 69% 25 75.84 0.0
29 19:15 W 7 16.09 Fair CLR 24 18 69% 25 75.84 0.0
29 18:55 W 9 16.09 Fair CLR 25 18 65% 26 75.84 0.0
29 18:35 W 13 16.09 Fair CLR 25 18 65% 26 75.87 0.0
29 18:15 W 9 16.09 Fair CLR 26 19 65% 27 75.84 0.0
29 17:55 W 17 16.09 Fair CLR 27 18 58% 28 75.82 0.0
29 17:35 W 17 G 26 16.09 Fair CLR 27 18 58% 28 75.84 0.0
29 17:15 W 15 16.09 Partly Cloudy SCT034 27 18 58% 28 75.84 0.0
29 16:55 W 17 16.09 Mostly Cloudy SCT034 BKN060 27 19 62% 28 75.87 0.0
29 16:35 W 19 16.09 Mostly Cloudy SCT032 BKN060 27 18 58% 28 75.87 0.0
29 16:15 W 19 16.09 Mostly Cloudy SCT032 SCT048 BKN060 27 19 62% 28 75.92 0.0
29 15:55 NW 17 16.09 Overcast OVC050 26 18 61% 27 75.95 0.0
29 15:35 W 17 16.09 Overcast SCT037 OVC050 26 18 61% 27 75.97 0.0
29 15:15 W 20 G 26 16.09 Overcast BKN037 OVC045 26 18 61% 27 76 0.0
29 14:55 W 22 16.09 Overcast BKN039 OVC045 26 17 58% 27 76.02 0.0
29 14:35 W 26 G 44 16.09 Mostly Cloudy BKN041 26 17 58% 27 76.02 0.0
29 14:15 W 17 16.09 Partly Cloudy SCT041 27 17 54% 28 76.02 0.0
29 13:55 W 24 G 31 16.09 Fair CLR 27 17 54% 28 76.05 0.0
29 13:35 W 30 G 37 16.09 Fair CLR 26 16 54% 27 76.05 0.0
29 13:15 W 26 G 35 16.09 Fair CLR 26 17 58% 27 76.07 0.0
Date Time (edt) Wind (kph) Vis. (km) Weather Sky Cond. Air Dwpt Max. Min. Relative Humidity Wind Chill (°C) Heat Index (°C) altimeter (cm) sea level (mb) 1 hr 3 hr 6 hr
6 hour
Temperature (ºC) Pressure Precipitation (cm)